Terminal Aerodrome Forecast
Issued by NWS Wakefield, VA

Home | Current Version | Previous Version | Text Only | Print | Product List | Glossary On
Versions: 1 2 3 4 5 6 7 8 9 10 11 12
000
FTUS41 KAKQ 141133
TAFECG
TAF
KECG 141133Z 1412/1512 22011G19KT P6SM SCT200
     FM141500 26013G22KT P6SM SKC
     FM142100 31008KT P6SM SKC
     FM150000 34004KT P6SM SCT200
     FM150300 03005KT P6SM BKN200=

USA.gov is the U.S. government's official web portal to all federal, state and local government web resources and services.